Time;durP1;ratioP1;P1;durP2;ratioP2;P2;SDS_P1;SDS_P2;PMS_P1;PMS_P2;Temp;Humidity;BMP_temperature;BMP_pressure;BME280_temperature;BME280_humidity;BME280_pressure;Samples;Min_cycle;Max_cycle;Signal;HPM_P1;HPM_P2
2022/07/26 00:01:00;;;;;;;14.50;13.03;;;24.70;74.50;;;;;;4991550;28;20234;-58
2022/07/26 00:03:26;;;;;;;15.23;13.60;;;24.70;74.70;;;;;;4980033;28;20208;-58
2022/07/26 00:05:51;;;;;;;15.80;13.23;;;24.70;74.50;;;;;;5009076;28;20204;-58
2022/07/26 00:08:17;;;;;;;12.97;11.77;;;24.70;74.10;;;;;;4965080;28;20335;-58
2022/07/26 00:10:47;;;;;;;14.80;13.43;;;24.70;74.10;;;;;;4946089;28;20213;-58
2022/07/26 00:13:16;;;;;;;14.70;13.23;;;24.80;74.30;;;;;;5018601;28;20239;-58
2022/07/26 00:15:43;;;;;;;14.97;13.07;;;24.70;74.40;;;;;;4978567;28;20227;-58
2022/07/26 00:18:09;;;;;;;13.70;12.40;;;24.70;74.60;;;;;;5016713;28;20196;-58
2022/07/26 00:20:35;;;;;;;15.30;13.80;;;24.70;74.70;;;;;;4981327;28;20207;-58
2022/07/26 00:23:01;;;;;;;13.83;12.50;;;24.70;74.80;;;;;;4997227;28;20207;-58
2022/07/26 00:25:27;;;;;;;14.40;13.20;;;24.70;75.30;;;;;;4997168;28;20196;-58
2022/07/26 00:27:53;;;;;;;15.23;13.73;;;24.70;75.80;;;;;;5000756;28;20201;-58
2022/07/26 00:30:18;;;;;;;15.83;14.33;;;24.60;76.70;;;;;;4977732;28;20224;-58
2022/07/26 00:32:44;;;;;;;16.00;14.50;;;24.50;77.20;;;;;;4996361;28;20188;-58
2022/07/26 00:35:10;;;;;;;14.50;13.30;;;24.50;77.50;;;;;;4984649;28;20254;-58
2022/07/26 00:37:36;;;;;;;14.03;12.73;;;24.40;76.00;;;;;;4970538;28;20219;-58
2022/07/26 00:40:03;;;;;;;15.10;13.57;;;24.20;76.10;;;;;;5009008;28;20280;-58
2022/07/26 00:42:29;;;;;;;14.80;13.20;;;24.30;76.20;;;;;;4996671;28;20225;-58
2022/07/26 00:44:54;;;;;;;14.00;12.73;;;24.20;76.70;;;;;;4980548;28;20220;-58
2022/07/26 00:47:20;;;;;;;14.83;13.43;;;24.20;76.80;;;;;;4980457;28;20219;-58
2022/07/26 00:49:46;;;;;;;14.93;13.53;;;24.20;78.30;;;;;;4996569;28;20176;-58
2022/07/26 00:52:12;;;;;;;22.03;15.07;;;24.10;79.60;;;;;;4980371;28;20224;-58
2022/07/26 00:54:39;;;;;;;14.87;13.43;;;24.00;79.60;;;;;;4996495;28;20188;-58
2022/07/26 00:57:05;;;;;;;14.97;13.47;;;23.80;80.10;;;;;;4999449;28;20181;-58
2022/07/26 00:59:31;;;;;;;13.17;11.87;;;23.80;80.70;;;;;;4980602;28;20193;-58
2022/07/26 01:01:57;;;;;;;13.77;12.53;;;23.70;79.90;;;;;;4964382;28;20199;-58
2022/07/26 01:04:22;;;;;;;12.90;11.63;;;23.60;80.50;;;;;;4979780;28;20196;-58
2022/07/26 01:06:49;;;;;;;12.53;11.43;;;23.50;79.70;;;;;;4996371;28;20200;-58
2022/07/26 01:09:15;;;;;;;12.43;11.40;;;23.50;80.20;;;;;;4977242;28;20200;-58
2022/07/26 01:11:42;;;;;;;11.53;10.43;;;23.50;81.10;;;;;;4989950;28;20208;-58
2022/07/26 01:14:07;;;;;;;8.00;7.20;;;23.50;81.30;;;;;;4995778;28;20233;-58
2022/07/26 01:16:33;;;;;;;8.30;7.60;;;23.40;76.30;;;;;;4980182;28;20191;-58
2022/07/26 01:18:59;;;;;;;10.63;6.87;;;23.40;76.60;;;;;;4998055;28;20304;-58
2022/07/26 01:21:32;;;;;;;6.43;5.83;;;23.30;76.50;;;;;;4996359;28;20208;-58
2022/07/26 01:23:57;;;;;;;6.13;5.53;;;23.30;74.30;;;;;;4997339;28;20195;-58
2022/07/26 01:26:23;;;;;;;6.13;5.53;;;23.30;74.60;;;;;;4978405;28;20197;-58
2022/07/26 01:28:49;;;;;;;8.17;7.57;;;23.40;72.40;;;;;;4963693;28;20291;-58
2022/07/26 01:31:15;;;;;;;8.93;8.03;;;23.30;74.20;;;;;;4963653;28;20219;-58
2022/07/26 01:33:41;;;;;;;9.77;8.07;;;23.40;75.10;;;;;;4980433;28;20211;-58
2022/07/26 01:36:08;;;;;;;6.70;6.10;;;23.50;75.90;;;;;;4995724;28;20193;-58
2022/07/26 01:38:33;;;;;;;6.93;6.27;;;23.50;72.30;;;;;;4995470;28;20188;-58
2022/07/26 01:40:59;;;;;;;6.63;5.90;;;23.50;72.30;;;;;;4995635;28;20250;-58
2022/07/26 01:43:25;;;;;;;6.13;5.63;;;23.50;70.70;;;;;;4989296;28;20291;-58
2022/07/26 01:45:51;;;;;;;6.30;5.70;;;23.50;71.50;;;;;;4995617;28;20192;-58
2022/07/26 01:48:16;;;;;;;5.83;4.90;;;23.60;69.90;;;;;;5006979;28;20222;-58
2022/07/26 01:50:42;;;;;;;5.13;4.63;;;23.60;69.30;;;;;;4986766;28;20282;-58
2022/07/26 01:53:08;;;;;;;5.80;5.03;;;23.70;67.20;;;;;;4979364;28;20196;-58
2022/07/26 01:55:34;;;;;;;4.00;3.67;;;23.70;66.70;;;;;;4979625;28;20188;-58
2022/07/26 01:58:00;;;;;;;4.90;4.50;;;23.70;64.30;;;;;;5011685;28;20208;-58
2022/07/26 02:00:25;;;;;;;5.53;5.03;;;23.70;66.50;;;;;;4996441;28;20219;-58
2022/07/26 02:02:51;;;;;;;6.00;5.50;;;23.60;69.00;;;;;;5002314;28;20263;-58
2022/07/26 02:05:17;;;;;;;5.50;4.60;;;23.40;71.20;;;;;;4995291;28;20196;-58
2022/07/26 02:07:43;;;;;;;5.73;5.13;;;23.20;72.20;;;;;;4993950;28;20228;-58
2022/07/26 02:10:13;;;;;;;5.40;4.40;;;23.00;72.00;;;;;;4976166;28;20201;-58
2022/07/26 02:12:38;;;;;;;4.10;3.80;;;22.90;71.50;;;;;;5002164;28;20228;-58
2022/07/26 02:15:06;;;;;;;4.80;4.30;;;22.80;69.80;;;;;;5007074;28;20189;-58
2022/07/26 02:17:32;;;;;;;4.40;3.83;;;22.90;70.90;;;;;;4994880;28;20291;-58
2022/07/26 02:19:58;;;;;;;5.00;3.60;;;23.00;65.80;;;;;;4987304;28;20328;-58
2022/07/26 02:22:24;;;;;;;4.37;3.50;;;23.10;67.00;;;;;;4999528;28;20215;-58
2022/07/26 02:24:50;;;;;;;3.40;3.10;;;23.10;67.90;;;;;;4982811;28;20251;-58
2022/07/26 02:27:16;;;;;;;3.60;3.30;;;23.20;68.40;;;;;;4985583;28;20235;-58
2022/07/26 02:29:42;;;;;;;2.83;2.63;;;23.20;64.90;;;;;;4994726;28;20236;-58
2022/07/26 02:32:08;;;;;;;2.97;2.63;;;23.20;66.50;;;;;;4975213;28;20213;-58
2022/07/26 02:34:33;;;;;;;3.60;2.13;;;23.20;64.10;;;;;;5007404;28;20246;-58
2022/07/26 02:36:59;;;;;;;2.87;2.67;;;23.30;62.60;;;;;;4999605;28;20200;-58
2022/07/26 02:39:26;;;;;;;2.77;2.50;;;23.40;61.70;;;;;;4977240;28;20199;-58
2022/07/26 02:41:57;;;;;;;4.00;2.60;;;23.40;63.40;;;;;;4994632;28;20223;-58
2022/07/26 02:44:24;;;;;;;2.40;2.20;;;23.40;63.30;;;;;;5010837;28;20193;-58
2022/07/26 02:46:50;;;;;;;3.47;2.57;;;23.40;62.00;;;;;;4993864;28;20287;-58
2022/07/26 02:49:16;;;;;;;3.03;2.73;;;23.50;61.10;;;;;;4993477;28;20268;-58
2022/07/26 02:51:41;;;;;;;6.53;2.70;;;23.50;62.80;;;;;;4994386;28;20218;-58
2022/07/26 02:54:07;;;;;;;2.40;2.20;;;23.50;62.00;;;;;;5010195;28;20196;-58
2022/07/26 02:56:33;;;;;;;2.60;2.40;;;23.50;62.50;;;;;;4974987;28;20288;-58
2022/07/26 02:58:58;;;;;;;2.83;2.03;;;23.50;62.10;;;;;;4991595;28;20232;-58
2022/07/26 03:01:24;;;;;;;2.63;2.43;;;23.50;61.30;;;;;;4994278;28;20193;-58
2022/07/26 03:03:50;;;;;;;2.60;2.00;;;23.50;63.30;;;;;;5010840;28;20192;-58
2022/07/26 03:06:16;;;;;;;2.53;2.23;;;23.50;61.60;;;;;;4993243;28;20200;-58
2022/07/26 03:08:41;;;;;;;2.70;2.50;;;23.40;61.80;;;;;;4993596;28;20204;-58
2022/07/26 03:11:07;;;;;;;2.77;2.57;;;23.40;61.00;;;;;;5010755;28;20228;-58
2022/07/26 03:13:33;;;;;;;2.90;2.53;;;23.40;61.80;;;;;;4995132;28;20247;-58
2022/07/26 03:15:59;;;;;;;2.43;2.23;;;23.50;60.90;;;;;;4978052;28;20192;-58
2022/07/26 03:18:24;;;;;;;2.80;2.40;;;23.40;61.10;;;;;;4992658;28;20196;-58
2022/07/26 03:20:50;;;;;;;3.07;2.30;;;23.40;63.10;;;;;;4977883;28;20255;-58
2022/07/26 03:23:16;;;;;;;3.87;2.40;;;23.40;61.10;;;;;;4981604;28;20208;-58
2022/07/26 03:25:42;;;;;;;2.53;2.33;;;23.50;62.30;;;;;;4993708;28;20290;-58
2022/07/26 03:28:08;;;;;;;2.73;2.37;;;23.40;61.90;;;;;;4993061;28;20200;-58
2022/07/26 03:30:34;;;;;;;2.70;2.50;;;23.40;61.40;;;;;;4977406;28;20223;-58
2022/07/26 03:32:59;;;;;;;3.23;2.33;;;23.30;61.70;;;;;;4993920;28;20192;-58
2022/07/26 03:35:25;;;;;;;2.87;2.40;;;23.40;61.60;;;;;;4993718;28;20196;-58
2022/07/26 03:37:51;;;;;;;4.30;2.73;;;23.40;61.20;;;;;;4977934;28;20189;-58
2022/07/26 03:40:18;;;;;;;2.50;2.30;;;23.40;61.50;;;;;;5010424;28;20187;-58
2022/07/26 03:42:45;;;;;;;2.87;2.50;;;23.40;61.30;;;;;;4974789;28;20279;-58
2022/07/26 03:45:11;;;;;;;2.43;2.03;;;23.40;62.10;;;;;;4977547;28;20195;-58
2022/07/26 03:47:36;;;;;;;3.63;2.47;;;23.40;62.00;;;;;;4962006;28;20239;-58
2022/07/26 03:50:03;;;;;;;4.17;2.77;;;23.40;61.50;;;;;;4993988;28;20192;-58
2022/07/26 03:52:29;;;;;;;3.77;2.37;;;23.50;61.50;;;;;;4977732;28;20188;-58
2022/07/26 03:54:55;;;;;;;3.83;2.90;;;23.50;61.80;;;;;;4961728;28;20202;-58
2022/07/26 03:57:20;;;;;;;3.97;2.93;;;23.50;61.90;;;;;;4958572;28;20207;-58
2022/07/26 03:59:46;;;;;;;2.63;2.43;;;23.40;62.50;;;;;;4985448;28;20184;-58
2022/07/26 04:02:11;;;;;;;3.10;2.77;;;23.40;61.90;;;;;;4977403;28;20231;-58
2022/07/26 04:04:37;;;;;;;4.47;2.70;;;23.40;62.20;;;;;;4958278;28;20252;-58
2022/07/26 04:07:03;;;;;;;2.73;2.53;;;23.40;62.20;;;;;;5006195;28;20242;-58
2022/07/26 04:09:29;;;;;;;2.90;2.60;;;23.40;62.90;;;;;;4996444;28;20272;-58
2022/07/26 04:11:54;;;;;;;3.37;2.60;;;23.50;62.10;;;;;;4984208;28;20240;-58
2022/07/26 04:14:20;;;;;;;2.73;2.53;;;23.50;61.90;;;;;;4997845;28;20196;-58
2022/07/26 04:16:46;;;;;;;2.70;2.50;;;23.50;62.50;;;;;;4993638;28;20268;-58
2022/07/26 04:19:12;;;;;;;2.90;2.70;;;23.50;62.70;;;;;;4990588;28;20193;-58
2022/07/26 04:21:38;;;;;;;2.30;2.13;;;23.50;63.60;;;;;;5002012;28;20193;-58
2022/07/26 04:24:04;;;;;;;3.23;2.83;;;23.50;62.80;;;;;;5001255;28;20205;-58
2022/07/26 04:26:30;;;;;;;3.30;3.00;;;23.50;63.00;;;;;;4982976;28;20206;-58
2022/07/26 04:28:56;;;;;;;3.00;2.70;;;23.50;63.20;;;;;;4975363;28;20197;-58
2022/07/26 04:31:22;;;;;;;3.07;2.60;;;23.60;62.70;;;;;;4980509;28;20307;-58
2022/07/26 04:33:48;;;;;;;2.67;2.47;;;23.60;62.90;;;;;;4988984;28;20185;-58
2022/07/26 04:36:14;;;;;;;3.63;3.03;;;23.60;62.80;;;;;;4989788;28;20198;-58
2022/07/26 04:38:40;;;;;;;2.90;2.60;;;23.70;62.80;;;;;;4978614;28;20200;-57
2022/07/26 04:41:06;;;;;;;3.13;2.80;;;23.60;62.00;;;;;;4982865;28;20204;-58
2022/07/26 04:43:31;;;;;;;3.60;2.57;;;23.70;62.30;;;;;;4997834;28;20285;-58
2022/07/26 04:45:58;;;;;;;2.80;2.60;;;23.70;63.10;;;;;;5005815;28;20192;-57
2022/07/26 04:48:24;;;;;;;2.67;2.47;;;23.70;62.60;;;;;;4995882;28;20223;-57
2022/07/26 04:50:50;;;;;;;3.07;2.63;;;23.70;63.40;;;;;;4995043;28;20220;-57
2022/07/26 04:53:16;;;;;;;2.90;2.40;;;23.70;62.70;;;;;;4991303;28;20327;-57
2022/07/26 04:55:42;;;;;;;2.53;2.33;;;23.70;61.40;;;;;;4992350;28;20272;-57
2022/07/26 04:58:08;;;;;;;2.40;2.20;;;23.70;61.20;;;;;;4996484;28;20188;-58
2022/07/26 05:00:34;;;;;;;3.17;2.23;;;23.70;61.10;;;;;;4985612;28;20208;-57
2022/07/26 05:03:01;;;;;;;2.87;2.40;;;23.80;61.60;;;;;;4990333;28;20207;-58
2022/07/26 05:05:29;;;;;;;1.90;1.80;;;23.80;61.70;;;;;;4980624;28;20250;-58
2022/07/26 05:07:58;;;;;;;2.40;2.20;;;23.90;62.20;;;;;;5007954;28;20224;-58
2022/07/26 05:10:34;;;;;;;2.47;2.27;;;23.90;61.50;;;;;;5008961;28;20230;-57
2022/07/26 05:13:02;;;;;;;3.07;2.53;;;23.90;61.10;;;;;;4998181;28;20246;-57
2022/07/26 05:15:29;;;;;;;4.00;2.40;;;23.90;60.90;;;;;;4991461;28;20196;-58
2022/07/26 05:17:59;;;;;;;2.30;2.10;;;24.00;61.80;;;;;;4996804;28;20200;-58
2022/07/26 05:20:25;;;;;;;2.40;2.13;;;24.00;62.50;;;;;;5004156;28;20199;-58
2022/07/26 05:22:51;;;;;;;2.20;2.00;;;24.00;61.30;;;;;;4995951;28;20283;-58
2022/07/26 05:25:16;;;;;;;2.50;2.10;;;24.00;60.90;;;;;;4979847;28;20200;-58
2022/07/26 05:27:42;;;;;;;2.63;2.40;;;24.00;60.30;;;;;;4990157;28;20193;-58
2022/07/26 05:30:09;;;;;;;2.10;1.90;;;24.00;61.00;;;;;;4992041;28;20255;-58
2022/07/26 05:32:35;;;;;;;2.20;2.00;;;24.00;60.80;;;;;;4981688;28;20294;-57
2022/07/26 05:35:01;;;;;;;2.50;1.90;;;24.00;61.10;;;;;;4989252;28;20193;-58
2022/07/26 05:37:26;;;;;;;2.70;1.80;;;24.00;60.80;;;;;;4989237;28;20259;-58
2022/07/26 05:39:52;;;;;;;1.77;1.67;;;24.00;60.80;;;;;;4993273;28;20192;-58
2022/07/26 05:42:18;;;;;;;1.83;1.73;;;24.00;60.70;;;;;;4986103;28;20287;-58
2022/07/26 05:44:43;;;;;;;2.00;1.80;;;24.00;60.90;;;;;;4993618;28;20251;-59
2022/07/26 05:47:09;;;;;;;1.67;1.50;;;23.90;60.70;;;;;;4965541;28;20204;-59
2022/07/26 05:49:35;;;;;;;1.87;1.30;;;23.90;60.00;;;;;;4977695;28;20257;-58
2022/07/26 05:52:01;;;;;;;1.60;1.50;;;23.90;60.50;;;;;;4993403;28;20286;-57
2022/07/26 05:54:26;;;;;;;1.60;1.50;;;23.90;60.20;;;;;;4981888;28;20284;-58
2022/07/26 05:56:52;;;;;;;2.00;1.40;;;23.90;59.00;;;;;;4995040;28;20211;-58
2022/07/26 05:59:18;;;;;;;1.77;1.40;;;23.80;59.20;;;;;;4983525;28;20195;-57
2022/07/26 06:01:43;;;;;;;1.43;1.33;;;23.80;60.30;;;;;;4982959;28;20228;-57
2022/07/26 06:04:09;;;;;;;1.40;1.30;;;23.80;61.20;;;;;;4994794;28;20283;-58
2022/07/26 06:06:35;;;;;;;1.43;1.33;;;23.80;61.50;;;;;;4995293;28;20279;-58
2022/07/26 06:09:01;;;;;;;2.20;1.73;;;23.80;62.00;;;;;;4995584;28;20192;-58
2022/07/26 06:11:26;;;;;;;1.43;1.33;;;23.80;61.80;;;;;;4999454;28;20207;-58
2022/07/26 06:13:52;;;;;;;2.73;1.63;;;23.80;61.90;;;;;;4997945;28;20245;-58
2022/07/26 06:16:18;;;;;;;1.67;1.40;;;23.70;61.50;;;;;;4977216;28;20223;-59
2022/07/26 06:18:43;;;;;;;1.20;1.10;;;23.70;60.60;;;;;;4969533;28;20188;-59
2022/07/26 06:21:09;;;;;;;2.57;1.87;;;23.70;61.10;;;;;;4978812;28;20192;-58
2022/07/26 06:23:35;;;;;;;2.50;1.50;;;23.70;61.20;;;;;;4978217;28;20219;-59
2022/07/26 06:26:01;;;;;;;2.37;1.73;;;23.60;60.60;;;;;;4975476;28;20295;-57
2022/07/26 06:28:27;;;;;;;2.33;1.27;;;23.50;60.90;;;;;;4988104;28;20188;-58
2022/07/26 06:30:53;;;;;;;3.43;1.60;;;23.60;60.30;;;;;;4994248;28;20219;-59
2022/07/26 06:33:19;;;;;;;1.53;1.40;;;23.50;58.60;;;;;;4995130;28;20193;-59
2022/07/26 06:35:44;;;;;;;1.97;1.50;;;23.50;58.50;;;;;;4978709;28;20199;-59
2022/07/26 06:38:10;;;;;;;1.57;1.47;;;23.50;59.60;;;;;;4991380;28;20193;-59
2022/07/26 06:40:36;;;;;;;1.77;1.40;;;23.60;59.70;;;;;;4966896;28;20199;-59
2022/07/26 06:43:02;;;;;;;1.40;1.30;;;23.60;59.80;;;;;;4975673;28;20206;-58
2022/07/26 06:45:28;;;;;;;1.70;1.37;;;23.60;58.70;;;;;;5003022;28;20217;-59
2022/07/26 06:47:54;;;;;;;2.80;1.57;;;23.50;59.30;;;;;;4978515;28;20200;-59
2022/07/26 06:50:20;;;;;;;1.70;1.57;;;23.50;59.70;;;;;;4994370;28;20192;-59
2022/07/26 06:52:45;;;;;;;1.93;1.43;;;23.60;59.60;;;;;;4994409;28;20227;-59
2022/07/26 06:55:11;;;;;;;2.70;1.43;;;23.60;60.20;;;;;;4984780;28;20193;-60
2022/07/26 06:57:37;;;;;;;2.90;1.97;;;23.50;60.30;;;;;;4994108;28;20258;-60
2022/07/26 07:00:05;;;;;;;1.80;1.70;;;23.60;60.70;;;;;;4992707;28;20191;-59
2022/07/26 07:02:31;;;;;;;2.13;1.30;;;23.60;60.60;;;;;;4992771;28;20231;-59
2022/07/26 07:04:57;;;;;;;1.83;1.27;;;23.60;60.40;;;;;;4999755;28;20197;-60
2022/07/26 07:07:22;;;;;;;3.23;1.70;;;23.50;59.40;;;;;;4995619;28;20200;-59
2022/07/26 07:09:48;;;;;;;1.90;1.60;;;23.50;59.50;;;;;;4961114;28;20201;-59
2022/07/26 07:12:14;;;;;;;3.20;1.53;;;23.50;59.60;;;;;;4993894;28;20263;-59
2022/07/26 07:14:40;;;;;;;1.80;1.23;;;23.50;60.00;;;;;;4990721;28;20276;-59
2022/07/26 07:17:07;;;;;;;2.47;1.23;;;23.50;59.90;;;;;;4994286;28;20203;-58
2022/07/26 07:19:35;;;;;;;1.50;1.40;;;23.50;59.80;;;;;;4992056;28;20180;-57
2022/07/26 07:22:01;;;;;;;1.60;1.50;;;23.60;60.90;;;;;;4999782;28;20196;-55
2022/07/26 07:24:26;;;;;;;2.23;1.67;;;23.60;61.10;;;;;;4983284;28;21300;-57
2022/07/26 07:26:52;;;;;;;2.20;1.70;;;23.70;61.20;;;;;;4962019;28;20200;-57
2022/07/26 07:29:19;;;;;;;3.97;1.50;;;23.70;60.90;;;;;;4960592;28;20192;-57
2022/07/26 07:31:46;;;;;;;2.30;1.67;;;23.70;60.50;;;;;;5004218;28;20221;-57
2022/07/26 07:34:13;;;;;;;1.67;1.57;;;23.70;61.40;;;;;;4990171;28;20347;-57
2022/07/26 07:36:38;;;;;;;1.70;1.50;;;23.70;61.50;;;;;;4979547;28;20184;-57
2022/07/26 07:39:04;;;;;;;1.63;1.33;;;23.70;61.60;;;;;;5003150;28;20188;-57
2022/07/26 07:41:33;;;;;;;2.73;1.60;;;23.70;61.80;;;;;;4976461;28;20192;-57
2022/07/26 07:43:59;;;;;;;1.80;1.70;;;23.70;61.80;;;;;;4991551;28;20239;-58
2022/07/26 07:46:24;;;;;;;2.87;1.90;;;23.70;62.10;;;;;;4983299;28;20327;-57
2022/07/26 07:48:50;;;;;;;2.70;1.50;;;23.70;62.10;;;;;;4991356;28;20287;-57
2022/07/26 07:51:16;;;;;;;1.60;1.50;;;23.70;62.70;;;;;;4961222;28;20216;-57
2022/07/26 07:53:41;;;;;;;1.80;1.60;;;23.70;63.50;;;;;;4991894;28;20207;-58
2022/07/26 07:56:07;;;;;;;1.70;1.60;;;23.70;65.10;;;;;;4992999;28;20195;-58
2022/07/26 07:58:33;;;;;;;2.80;1.40;;;23.70;66.70;;;;;;4984329;28;20266;-58
2022/07/26 08:00:58;;;;;;;1.67;1.57;;;23.70;66.20;;;;;;4993613;28;20208;-58
2022/07/26 08:03:24;;;;;;;1.70;1.50;;;23.70;66.70;;;;;;4994947;28;20197;-57
2022/07/26 08:05:50;;;;;;;2.00;1.80;;;23.70;67.40;;;;;;4973213;28;20216;-58
2022/07/26 08:08:15;;;;;;;1.97;1.80;;;23.60;67.90;;;;;;5007777;28;20312;-58
2022/07/26 08:10:41;;;;;;;2.87;1.93;;;23.60;68.10;;;;;;4995090;28;20298;-58
2022/07/26 08:13:07;;;;;;;2.80;1.63;;;23.60;68.50;;;;;;4993442;28;20231;-57
2022/07/26 08:15:32;;;;;;;2.67;1.80;;;23.50;69.00;;;;;;4961146;28;20196;-57
2022/07/26 08:17:58;;;;;;;1.73;1.60;;;23.60;69.00;;;;;;5011997;28;20185;-58
2022/07/26 08:20:24;;;;;;;3.83;1.80;;;23.50;69.30;;;;;;4997603;28;20201;-57
2022/07/26 08:22:49;;;;;;;4.07;2.20;;;23.40;68.00;;;;;;4997461;28;20192;-57
2022/07/26 08:25:15;;;;;;;2.00;1.87;;;23.40;68.00;;;;;;5003945;28;20275;-57
2022/07/26 08:27:41;;;;;;;2.20;1.93;;;23.40;67.70;;;;;;4995665;28;20249;-57
2022/07/26 08:30:07;;;;;;;3.17;2.10;;;23.40;67.10;;;;;;4978323;28;20219;-57
2022/07/26 08:32:32;;;;;;;3.73;1.90;;;23.40;66.50;;;;;;4980261;28;20251;-58
2022/07/26 08:34:58;;;;;;;2.93;2.07;;;23.50;66.20;;;;;;4981184;28;20227;-57
2022/07/26 08:37:24;;;;;;;4.30;1.80;;;23.50;66.00;;;;;;4977663;28;20212;-57
2022/07/26 08:39:49;;;;;;;10.50;2.77;;;23.50;66.20;;;;;;4994839;28;20200;-57
2022/07/26 08:42:17;;;;;;;9.43;2.40;;;23.50;65.90;;;;;;4996876;28;20192;-57
2022/07/26 08:44:44;;;;;;;4.37;2.37;;;23.50;66.30;;;;;;4996795;28;20188;-57
2022/07/26 08:47:14;;;;;;;6.60;2.47;;;23.50;67.10;;;;;;5012557;28;20196;-57
2022/07/26 08:49:40;;;;;;;6.73;2.87;;;23.50;67.80;;;;;;4995298;28;20185;-58
2022/07/26 08:52:07;;;;;;;3.73;2.67;;;23.60;67.90;;;;;;4979936;28;20219;-58
2022/07/26 08:54:33;;;;;;;3.00;2.57;;;23.60;67.30;;;;;;4967876;28;20189;-57
2022/07/26 08:56:59;;;;;;;4.83;2.80;;;23.60;66.50;;;;;;4979731;28;20200;-57
2022/07/26 08:59:24;;;;;;;7.53;2.90;;;23.70;67.80;;;;;;4995315;28;20184;-57
2022/07/26 09:01:52;;;;;;;3.80;2.67;;;23.70;67.00;;;;;;4977187;28;20220;-57
2022/07/26 09:04:24;;;;;;;2.43;2.23;;;23.70;66.80;;;;;;5010252;28;20189;-57
2022/07/26 09:06:56;;;;;;;3.60;2.70;;;23.70;66.20;;;;;;4995995;28;20275;-57
2022/07/26 09:09:21;;;;;;;4.83;3.03;;;23.80;65.40;;;;;;4995922;28;20196;-57
2022/07/26 09:11:47;;;;;;;3.63;2.67;;;23.80;66.30;;;;;;4979820;28;20208;-57
2022/07/26 09:14:13;;;;;;;2.93;2.50;;;23.90;67.00;;;;;;5000266;28;20243;-57
2022/07/26 09:16:38;;;;;;;3.23;2.73;;;24.00;67.30;;;;;;4963855;28;20184;-58
2022/07/26 09:19:34;;;;;;;3.90;2.30;;;24.00;68.90;;;;;;4996246;28;20198;-58
2022/07/26 09:22:13;;;;;;;3.50;2.30;;;24.10;68.90;;;;;;4956572;28;20209;-60
2022/07/26 09:24:40;;;;;;;2.87;2.43;;;24.20;69.40;;;;;;5007529;28;20216;-59
2022/07/26 09:27:11;;;;;;;3.93;2.77;;;24.20;70.50;;;;;;5012029;28;20196;-61
2022/07/26 09:29:44;;;;;;;3.93;2.30;;;24.20;70.30;;;;;;4995933;28;20263;-60
2022/07/26 09:32:11;;;;;;;2.83;1.73;;;24.30;71.10;;;;;;5001174;28;20288;-60
2022/07/26 09:34:39;;;;;;;3.97;2.10;;;24.40;70.80;;;;;;5011812;28;20271;-61
2022/07/26 09:37:04;;;;;;;2.20;1.90;;;24.50;70.00;;;;;;4980073;28;20219;-60
2022/07/26 09:39:30;;;;;;;2.17;1.93;;;24.60;69.20;;;;;;4976353;28;20476;-60
2022/07/26 09:41:56;;;;;;;2.63;2.40;;;24.60;69.10;;;;;;4994609;28;20196;-60
2022/07/26 09:44:26;;;;;;;2.27;1.90;;;24.70;68.90;;;;;;4979652;28;20220;-60
2022/07/26 09:46:55;;;;;;;2.27;1.83;;;24.70;68.00;;;;;;4999303;28;20192;-60
2022/07/26 09:49:21;;;;;;;2.30;1.70;;;24.70;68.50;;;;;;4992572;28;20255;-60
2022/07/26 09:51:49;;;;;;;2.37;1.90;;;24.70;68.40;;;;;;4996703;28;20207;-59
2022/07/26 09:54:34;;;;;;;1.93;1.63;;;24.70;68.50;;;;;;4995573;28;20191;-60
2022/07/26 09:57:00;;;;;;;2.13;1.57;;;24.70;68.10;;;;;;4997343;28;20195;-59
2022/07/26 09:59:28;;;;;;;2.90;1.50;;;24.70;68.20;;;;;;4995087;28;20188;-59
2022/07/26 10:01:56;;;;;;;2.03;1.90;;;24.60;68.70;;;;;;4992353;28;20192;-59
2022/07/26 10:04:23;;;;;;;2.83;1.70;;;24.60;68.70;;;;;;5007413;28;20257;-59
2022/07/26 10:06:49;;;;;;;1.83;1.70;;;24.60;68.70;;;;;;4995009;28;20202;-59
2022/07/26 10:09:17;;;;;;;4.33;1.50;;;24.60;69.00;;;;;;4995436;28;20279;-59
2022/07/26 10:12:04;;;;;;;2.07;1.87;;;24.60;69.00;;;;;;4978533;28;20270;-59
2022/07/26 10:14:36;;;;;;;2.07;1.63;;;24.60;70.50;;;;;;4994278;28;20204;-59
2022/07/26 10:17:27;;;;;;;1.70;1.60;;;24.50;71.00;;;;;;4990754;28;20216;-59
2022/07/26 10:19:54;;;;;;;2.27;2.07;;;24.40;71.10;;;;;;5010480;28;20195;-59
2022/07/26 10:22:33;;;;;;;2.23;2.03;;;24.30;71.80;;;;;;4997786;28;20222;-59
2022/07/26 10:25:17;;;;;;;2.60;1.80;;;24.40;73.60;;;;;;5011925;28;20190;-59
2022/07/26 10:27:56;;;;;;;2.43;1.97;;;24.40;72.70;;;;;;4999419;28;20196;-59
2022/07/26 10:30:24;;;;;;;1.63;1.47;;;24.40;72.50;;;;;;5000026;28;20198;-59
2022/07/26 10:32:50;;;;;;;1.80;1.70;;;24.50;70.60;;;;;;5010674;28;20188;-58
2022/07/26 10:35:35;;;;;;;1.40;1.30;;;24.50;70.80;;;;;;4994962;28;20181;-58
2022/07/26 10:38:02;;;;;;;2.60;1.90;;;24.50;69.90;;;;;;4981127;28;20274;-59
2022/07/26 10:40:29;;;;;;;3.03;2.27;;;24.60;70.30;;;;;;4994938;28;20185;-58
2022/07/26 10:43:08;;;;;;;2.53;1.77;;;24.70;69.50;;;;;;4994604;28;20195;-59
2022/07/26 10:45:34;;;;;;;2.07;1.63;;;24.80;70.50;;;;;;5005890;28;20251;-59
2022/07/26 10:48:17;;;;;;;1.77;1.67;;;24.90;69.70;;;;;;4975143;28;20217;-60
2022/07/26 10:50:51;;;;;;;2.70;1.60;;;24.90;69.10;;;;;;5007652;28;20235;-59
2022/07/26 10:53:26;;;;;;;2.63;1.80;;;25.00;68.80;;;;;;5001435;28;20188;-59
2022/07/26 10:55:57;;;;;;;2.50;1.70;;;25.20;69.10;;;;;;4994013;28;20206;-59
2022/07/26 10:58:24;;;;;;;2.77;1.57;;;25.20;66.80;;;;;;4998254;28;20288;-60
2022/07/26 11:00:57;;;;;;;2.73;1.73;;;25.30;66.90;;;;;;4999147;28;20291;-60
2022/07/26 11:03:23;;;;;;;1.73;1.40;;;25.40;68.10;;;;;;5006951;28;20211;-60
2022/07/26 11:05:50;;;;;;;2.00;1.80;;;25.50;68.40;;;;;;4992935;28;20188;-60
2022/07/26 11:08:16;;;;;;;2.67;1.83;;;25.60;68.30;;;;;;4991337;28;20211;-60
2022/07/26 11:10:43;;;;;;;4.50;1.93;;;25.60;67.80;;;;;;5003864;28;20204;-59
2022/07/26 11:13:12;;;;;;;2.43;2.23;;;25.70;68.80;;;;;;4994700;28;20232;-59
2022/07/26 11:15:40;;;;;;;2.50;1.90;;;25.70;65.90;;;;;;4994370;28;20188;-58
2022/07/26 11:18:21;;;;;;;2.60;2.00;;;25.70;64.30;;;;;;5008968;28;20180;-58
2022/07/26 11:20:51;;;;;;;2.10;1.90;;;25.70;64.30;;;;;;5005625;28;20222;-58
2022/07/26 11:23:24;;;;;;;2.10;1.90;;;25.80;66.40;;;;;;4993944;28;20216;-58
2022/07/26 11:26:09;;;;;;;2.63;1.97;;;25.90;65.80;;;;;;4994029;28;20279;-58
2022/07/26 11:28:49;;;;;;;2.53;1.80;;;26.00;65.70;;;;;;5006471;28;20247;-57
2022/07/26 11:31:16;;;;;;;2.83;1.97;;;26.00;66.20;;;;;;4992984;28;20215;-58
2022/07/26 11:33:45;;;;;;;2.43;2.20;;;26.10;64.20;;;;;;5010290;28;20192;-58
2022/07/26 11:36:11;;;;;;;2.27;1.80;;;26.10;64.70;;;;;;4993985;28;20184;-58
2022/07/26 11:38:47;;;;;;;2.90;2.20;;;26.20;63.30;;;;;;4993908;28;20191;-58
2022/07/26 11:41:17;;;;;;;2.03;1.80;;;26.20;64.10;;;;;;4993697;28;20227;-58
2022/07/26 11:43:42;;;;;;;2.30;1.97;;;26.30;60.70;;;;;;5002445;28;20283;-58
2022/07/26 11:46:08;;;;;;;2.70;1.63;;;26.40;61.40;;;;;;5008158;28;20283;-59
2022/07/26 11:48:34;;;;;;;1.93;1.83;;;26.40;58.30;;;;;;4992918;28;20203;-59
2022/07/26 11:51:26;;;;;;;2.40;2.20;;;26.40;60.70;;;;;;4977490;28;20246;-59
2022/07/26 11:53:58;;;;;;;4.70;2.20;;;26.50;58.00;;;;;;4963811;28;20254;-59
2022/07/26 11:56:25;;;;;;;3.40;2.47;;;26.50;56.20;;;;;;4999753;28;20202;-59
2022/07/26 11:58:54;;;;;;;2.50;2.10;;;26.50;56.90;;;;;;4993725;28;20181;-58
2022/07/26 12:01:21;;;;;;;2.83;2.37;;;26.50;56.00;;;;;;4990754;28;20196;-58
2022/07/26 12:03:50;;;;;;;2.30;2.00;;;26.60;58.60;;;;;;5016053;28;20183;-58
2022/07/26 12:06:20;;;;;;;3.33;2.20;;;26.70;56.60;;;;;;4993743;28;20223;-59
2022/07/26 12:08:48;;;;;;;3.10;2.07;;;26.80;54.30;;;;;;4993637;28;20197;-59
2022/07/26 12:11:15;;;;;;;4.10;2.33;;;27.10;56.10;;;;;;5020666;28;20223;-59
2022/07/26 12:13:48;;;;;;;2.60;2.40;;;27.30;58.20;;;;;;4993306;28;20267;-59
2022/07/26 12:16:36;;;;;;;3.17;2.23;;;27.60;51.90;;;;;;4993186;28;20200;-59
2022/07/26 12:19:04;;;;;;;2.50;2.13;;;27.80;54.00;;;;;;4991306;28;20200;-59
2022/07/26 12:21:40;;;;;;;3.70;2.20;;;28.10;55.30;;;;;;4986372;28;20207;-59
2022/07/26 12:24:07;;;;;;;5.07;2.30;;;28.40;54.60;;;;;;4984598;28;20193;-60
2022/07/26 12:26:33;;;;;;;5.20;2.33;;;28.80;54.50;;;;;;4984826;28;20201;-60
2022/07/26 12:29:23;;;;;;;3.00;2.30;;;28.70;48.50;;;;;;4991336;28;20193;-60
2022/07/26 12:31:58;;;;;;;2.63;2.43;;;28.80;49.00;;;;;;4983199;28;20213;-61
2022/07/26 12:34:24;;;;;;;2.63;2.23;;;29.00;50.40;;;;;;4997624;28;20184;-60
2022/07/26 12:36:50;;;;;;;3.70;2.10;;;29.40;50.30;;;;;;4995470;28;20200;-60
2022/07/26 12:39:21;;;;;;;2.73;2.40;;;29.70;49.40;;;;;;5004282;28;20256;-60
2022/07/26 12:41:49;;;;;;;3.83;2.37;;;29.90;47.90;;;;;;5009715;28;20234;-60
2022/07/26 12:44:15;;;;;;;2.47;1.97;;;30.00;50.60;;;;;;5009281;28;20195;-60
2022/07/26 12:46:43;;;;;;;2.30;2.10;;;30.30;51.30;;;;;;4989939;28;20188;-60